Surface observations / UK / EGMC

Quebec | Canada | USA | France | UK | Europe | Elsewhere

Display: Info & Location for EGMC | Help decoding METAR

EGMC SOUTHEND-ON-SEA -- UK
Raw surface observations for station EGMC
EGMC 041120Z 17009KT 130V210 9999 FEW048 16/03 Q1027=
EGMC 041050Z 19007KT 100V240 9999 FEW048 15/02 Q1027=
EGMC 041020Z 18007KT 070V220 9999 FEW044 15/03 Q1027=
EGMC 040950Z 16008KT 130V190 9999 FEW044 15/04 Q1027=
EGMC 040920Z 16007KT 9999 FEW044 14/04 Q1027=
EGMC 040850Z 17006KT 140V210 9999 FEW044 14/03 Q1027=
EGMC 040820Z 15005KT 110V180 CAVOK 13/04 Q1027=
EGMC 040750Z 14005KT 110V180 CAVOK 13/04 Q1027=
EGMC 040720Z 00000KT CAVOK 13/06 Q1027=
EGMC 040650Z 00000KT CAVOK 11/06 Q1028=
EGMC 040620Z 00000KT CAVOK 09/05 Q1027=
EGMC 040550Z 26002KT CAVOK 06/04 Q1027=
EGMC 040520Z 26002KT CAVOK 04/02 Q1027=
EGMC 040450Z 26002KT CAVOK 02/01 Q1028=
EGMC 040350Z 26002KT CAVOK 03/02 Q1027=
EGMC 040220Z 26002KT CAVOK 04/02 Q1027=
EGMC 040150Z 26002KT CAVOK 04/02 Q1027=
EGMC 040120Z 26002KT CAVOK 04/02 Q1027=
EGMC 040050Z 24002KT CAVOK 05/02 Q1027=
EGMC 032250Z 24002KT CAVOK 06/03 Q1027=
EGMC 032220Z 24002KT CAVOK 07/03 Q1027=
EGMC 032150Z 24002KT CAVOK 07/03 Q1027=
EGMC 032120Z 28003KT CAVOK 07/03 Q1027=
EGMC 032050Z 00000KT CAVOK 08/03 Q1027=
EGMC 032020Z 00000KT CAVOK 09/03 Q1027=
EGMC 031950Z VRB01KT CAVOK 10/03 Q1027=
EGMC 031920Z VRB02KT CAVOK 11/02 Q1026=
EGMC 031850Z 31004KT 280V340 CAVOK 13/03 Q1026=
EGMC 031820Z 30007KT CAVOK 13/02 Q1026=
EGMC 031750Z 30008KT CAVOK 14/01 Q1026=
EGMC 031720Z 32006KT CAVOK 14/01 Q1026=
EGMC 031650Z 31007KT CAVOK 15/01 Q1026=
EGMC 031620Z 29008KT CAVOK 15/00 Q1026=
EGMC 031550Z 26008KT CAVOK 15/00 Q1025=
EGMC 031520Z 31008KT 270V340 CAVOK 14/M00 Q1026=
EGMC 031450Z 33009KT 280V350 CAVOK 14/02 Q1025=
EGMC 031420Z 28006KT 240V310 CAVOK 16/01 Q1025=
EGMC 031350Z 29010KT 250V330 CAVOK 14/M00 Q1025=
EGMC 031320Z 27009KT CAVOK 14/M00 Q1025=
EGMC 031250Z 27012KT 240V320 CAVOK 15/M00 Q1025=
EGMC 031220Z 24010KT 220V310 CAVOK 14/01 Q1025=
EGMC 031150Z 26010KT 220V310 CAVOK 15/01 Q1025=
EGMC 031120Z 28007KT 220V010 9999 FEW046 14/02 Q1025=